Estación Meteorológica Peña el Pijo (Robertgarden) [ 12/11/18 10:02:26 CET ]

Fecha Hora Presion(HPa) Temp (°C) Humedad % Rocio (°C) Viento ( m/s) Direccion Lluvia 1Hora(mm) Lluvia 24H(mm) LLuvia Total(mm)
2018-Dec-05 01:01:50 1015.600 4.1 75 0.0         154.88
2018-Dec-05 02:01:41 1015.200 3.5 76 -0.3         154.88
2018-Dec-05 03:04:12 1015.200 3.6 77 -0.1         154.88
2018-Dec-05 04:02:01 1015.100 3.4 77 -0.3         154.88
2018-Dec-05 05:01:36 1015.100 2.2 78 -1.3         154.88
2018-Dec-05 06:01:36 1015.300 1.8 80 -1.3         154.88
2018-Dec-05 07:01:33 1015.600 2.5 80 -0.6         154.88
2018-Dec-05 08:01:48 1016.100 2.5 81 -0.4         154.88
2018-Dec-05 09:01:43 1016.400 3.1 82 0.3         154.88
2018-Dec-05 10:01:37 1016.600 10.3 78 6.6         154.88
2018-Dec-05 11:01:50 1016.900 16.6 51 6.4         154.88
2018-Dec-05 12:01:44 1016.300 20.5 40 6.4         154.88
2018-Dec-05 13:01:57 1015.800 22.9 33 5.7         154.88
2018-Dec-05 14:02:08 1015.300 24.8 27 4.4 2.1 NW     154.88
2018-Dec-05 15:01:58 1015.200 24.4 23 1.7 2.7 NW     154.88
2018-Dec-05 16:01:32 1015.300 22.9 24 1.1 1.4 WNW     154.88
2018-Dec-05 17:01:46 1015.600 19.6 28 0.5         154.88
2018-Dec-05 18:01:42 1016.100 13.5 41 0.5         154.88
2018-Dec-05 19:01:38 1016.700 9.5 51 -0.1         154.88
2018-Dec-05 20:02:06 1017.100 8.3 57 0.2         154.88
2018-Dec-05 21:01:43 1017.200 7.3 59 -0.2         154.88
2018-Dec-05 22:01:44 1017.300 6.9 61 -0.1         154.88
2018-Dec-05 23:01:47 1017.600 5.5 63 -1.0         154.88

Temperatura Máxima:24°    Temperatura Mínima:
Presión Máxima:1017.600 Hpa    Presión Mínima:1015.100 Hpa


Volver